createdAt,value
2022-11-25T00:01:18.056Z,100015.16
2022-11-25T00:03:45.931Z,100018.19
2022-11-25T00:06:15.191Z,100025.22
2022-11-25T00:08:43.910Z,100029.41
2022-11-25T00:11:12.585Z,100030.66
2022-11-25T00:13:40.381Z,100025.50
2022-11-25T00:16:12.621Z,100028.75
2022-11-25T00:18:39.787Z,100035.50
2022-11-25T00:21:09.662Z,100033.53
2022-11-25T00:23:37.607Z,100033.91
2022-11-25T00:26:13.587Z,100042.94
2022-11-25T00:28:42.412Z,100041.84
2022-11-25T00:31:15.428Z,100041.66
2022-11-25T00:33:43.098Z,100051.59
2022-11-25T00:36:28.958Z,100050.38
2022-11-25T00:38:58.005Z,100050.75
2022-11-25T00:41:44.187Z,100038.34
2022-11-25T00:44:31.825Z,100044.41
2022-11-25T00:46:59.151Z,100049.22
2022-11-25T00:49:27.672Z,100061.97
2022-11-25T00:51:54.758Z,100057.97
2022-11-25T00:54:21.659Z,100063.13
2022-11-25T00:56:49.460Z,100070.88
2022-11-25T00:59:16.392Z,100064.66
2022-11-25T01:01:43.212Z,100061.59
2022-11-25T01:04:10.122Z,100065.16
2022-11-25T01:06:38.177Z,100071.66
2022-11-25T01:09:06.599Z,100071.03
2022-11-25T01:11:33.826Z,100069.25
2022-11-25T01:14:01.914Z,100065.38
2022-11-25T01:16:29.641Z,100064.34
2022-11-25T01:18:58.369Z,100066.28
2022-11-25T01:21:30.714Z,100066.78
2022-11-25T01:23:58.913Z,100059.56
2022-11-25T01:26:26.051Z,100066.34
2022-11-25T01:28:59.296Z,100063.13
2022-11-25T01:31:27.048Z,100067.81
2022-11-25T01:33:56.797Z,100074.13
2022-11-25T01:36:24.400Z,100070.88
2022-11-25T01:38:56.024Z,100068.94
2022-11-25T01:41:25.074Z,100065.78
2022-11-25T01:44:13.765Z,100078.44
2022-11-25T01:46:51.649Z,100077.91
2022-11-25T01:49:37.214Z,100080.84
2022-11-25T01:52:07.655Z,100080.81
2022-11-25T01:54:42.684Z,100075.25
2022-11-25T01:57:15.371Z,100084.25
2022-11-25T01:59:49.308Z,100082.31
2022-11-25T02:02:17.229Z,100088.38
2022-11-25T02:04:46.902Z,100090.63
2022-11-25T02:07:38.285Z,100088.38
2022-11-25T02:10:14.459Z,100078.88
2022-11-25T02:12:44.375Z,100087.91
2022-11-25T02:15:11.991Z,100089.34
2022-11-25T02:17:38.967Z,100092.50
2022-11-25T02:20:09.140Z,100102.03
2022-11-25T02:22:51.096Z,100096.69
2022-11-25T02:25:24.548Z,100097.25
2022-11-25T02:27:57.712Z,100096.06
2022-11-25T02:30:24.468Z,100091.53
2022-11-25T02:32:51.564Z,100096.53
2022-11-25T02:35:30.352Z,100094.50
2022-11-25T02:38:03.767Z,100095.31
2022-11-25T02:40:31.206Z,100096.06
2022-11-25T02:43:00.594Z,100099.66
2022-11-25T02:45:41.694Z,100100.97
2022-11-25T02:48:09.036Z,100101.94
2022-11-25T02:50:36.021Z,100105.66
2022-11-25T02:53:02.809Z,100101.31
2022-11-25T02:55:29.980Z,100103.53
2022-11-25T02:57:57.076Z,100103.41
2022-11-25T03:00:24.402Z,100115.75
2022-11-25T03:02:56.162Z,100110.00
2022-11-25T03:05:24.230Z,100100.56
2022-11-25T03:07:51.361Z,100108.94
2022-11-25T03:10:20.497Z,100119.09
2022-11-25T03:12:47.445Z,100106.97
2022-11-25T03:15:16.532Z,100118.56
2022-11-25T03:17:44.701Z,100115.66
2022-11-25T03:20:15.144Z,100121.44
2022-11-25T03:22:42.996Z,100120.25
2022-11-25T03:25:13.544Z,100121.53
2022-11-25T03:27:40.959Z,100124.09
2022-11-25T03:30:11.806Z,100127.84
2022-11-25T03:32:38.996Z,100127.50
2022-11-25T03:35:06.656Z,100122.31
2022-11-25T03:37:33.731Z,100130.72
2022-11-25T03:40:01.097Z,100129.44
2022-11-25T03:42:29.837Z,100136.22
2022-11-25T03:44:56.575Z,100140.28
2022-11-25T03:47:23.824Z,100139.09
2022-11-25T03:49:50.631Z,100146.50
2022-11-25T03:52:17.499Z,100143.91
2022-11-25T03:54:45.069Z,100153.09
2022-11-25T03:57:16.707Z,100150.50
2022-11-25T03:59:44.213Z,100146.00
2022-11-25T04:02:11.087Z,100153.56
2022-11-25T04:04:39.180Z,100165.31
2022-11-25T04:07:06.447Z,100156.75
2022-11-25T04:09:33.716Z,100159.34
2022-11-25T04:12:21.723Z,100166.28
2022-11-25T04:14:55.578Z,100157.94
2022-11-25T04:17:23.166Z,100164.69
2022-11-25T04:19:51.297Z,100155.16
2022-11-25T04:22:18.134Z,100159.50
2022-11-25T04:24:46.593Z,100161.91
2022-11-25T04:27:20.349Z,100169.69
2022-11-25T04:29:47.684Z,100169.09
2022-11-25T04:32:16.693Z,100170.06
2022-11-25T04:34:44.534Z,100177.00
2022-11-25T04:37:11.388Z,100169.09
2022-11-25T04:39:42.748Z,100174.25
2022-11-25T04:42:33.275Z,100178.41
2022-11-25T04:47:55.300Z,100179.66
2022-11-25T04:50:24.134Z,100183.06
2022-11-25T04:53:01.053Z,100185.47
2022-11-25T04:55:27.986Z,100194.81
2022-11-25T04:57:55.958Z,100195.44
2022-11-25T05:00:23.854Z,100193.88
2022-11-25T05:02:50.634Z,100200.63
2022-11-25T05:05:21.701Z,100195.63
2022-11-25T05:07:49.896Z,100195.81
2022-11-25T05:10:19.603Z,100192.25
2022-11-25T05:12:48.565Z,100200.81
2022-11-25T05:15:18.274Z,100202.94
2022-11-25T05:17:47.576Z,100204.53
2022-11-25T05:20:19.059Z,100209.06
2022-11-25T05:22:46.482Z,100205.50
2022-11-25T05:25:21.305Z,100206.50
2022-11-25T05:28:05.767Z,100212.47
2022-11-25T05:30:32.749Z,100202.13
2022-11-25T05:32:59.576Z,100202.94
2022-11-25T05:35:26.336Z,100210.69
2022-11-25T05:37:53.101Z,100213.28
2022-11-25T05:40:22.917Z,100214.06
2022-11-25T05:43:06.629Z,100220.38
2022-11-25T05:45:38.338Z,100218.19
2022-11-25T05:48:07.362Z,100216.09
2022-11-25T05:50:34.702Z,100227.94
2022-11-25T05:53:03.429Z,100216.84
2022-11-25T05:55:30.242Z,100227.06
2022-11-25T05:58:02.273Z,100222.78
2022-11-25T06:00:29.084Z,100215.25
2022-11-25T06:03:00.973Z,100223.41
2022-11-25T06:05:28.207Z,100232.00
2022-11-25T06:07:55.006Z,100226.84
2022-11-25T06:10:22.716Z,100226.56
2022-11-25T06:12:50.793Z,100229.00
2022-11-25T06:15:17.781Z,100231.44
2022-11-25T06:17:44.540Z,100233.38
2022-11-25T06:20:17.817Z,100228.66
2022-11-25T06:22:45.738Z,100238.09
2022-11-25T06:25:12.583Z,100234.19
2022-11-25T06:28:11.163Z,100241.91
2022-11-25T06:30:31.887Z,100239.47
2022-11-25T06:33:10.432Z,100242.97
2022-11-25T06:35:37.541Z,100243.09
2022-11-25T06:38:04.908Z,100242.41
2022-11-25T06:40:32.595Z,100237.75
2022-11-25T06:42:59.392Z,100242.53
2022-11-25T06:45:26.192Z,100243.34
2022-11-25T06:47:53.794Z,100237.53
2022-11-25T06:50:20.597Z,100241.75
2022-11-25T06:52:47.715Z,100245.28
2022-11-25T06:55:14.594Z,100244.56
2022-11-25T06:57:41.633Z,100249.56
2022-11-25T07:00:08.866Z,100249.41
2022-11-25T07:02:41.721Z,100251.19
2022-11-25T07:05:11.134Z,100249.72
2022-11-25T07:07:38.011Z,100254.25
2022-11-25T07:10:05.860Z,100262.38
2022-11-25T07:12:32.732Z,100260.22
2022-11-25T07:15:01.551Z,100259.22
2022-11-25T07:17:31.139Z,100257.59
2022-11-25T07:19:57.914Z,100257.28
2022-11-25T07:22:24.631Z,100262.47
2022-11-25T07:24:51.381Z,100256.75
2022-11-25T07:27:18.161Z,100260.81
2022-11-25T07:30:03.169Z,100254.81
2022-11-25T07:32:34.048Z,100257.78
2022-11-25T07:35:01.037Z,100260.00
2022-11-25T07:37:27.887Z,100264.47
2022-11-25T07:39:54.666Z,100258.03
2022-11-25T07:42:21.744Z,100262.75
2022-11-25T07:44:49.397Z,100258.28
2022-11-25T07:47:35.571Z,100258.91
2022-11-25T07:50:02.434Z,100264.59
2022-11-25T07:52:29.967Z,100255.84
2022-11-25T07:54:56.753Z,100269.09
2022-11-25T07:57:24.574Z,100266.38
2022-11-25T07:59:51.364Z,100263.69
2022-11-25T08:02:18.145Z,100262.25
2022-11-25T08:04:46.092Z,100270.75
2022-11-25T08:07:12.872Z,100267.28
2022-11-25T08:09:39.779Z,100265.97
2022-11-25T08:12:06.840Z,100265.09
2022-11-25T08:14:35.131Z,100259.34
2022-11-25T08:17:04.596Z,100262.22
2022-11-25T08:19:32.256Z,100271.22
2022-11-25T08:21:59.216Z,100268.03
2022-11-25T08:24:26.085Z,100275.88
2022-11-25T08:26:54.518Z,100279.28
2022-11-25T08:29:21.229Z,100276.50
2022-11-25T08:31:48.123Z,100275.13
2022-11-25T08:34:24.103Z,100276.88
2022-11-25T08:36:56.120Z,100275.63
2022-11-25T08:42:11.214Z,100287.34
2022-11-25T08:44:39.335Z,100282.88
2022-11-25T08:47:06.385Z,100285.31
2022-11-25T08:49:40.231Z,100292.81
2022-11-25T08:52:07.943Z,100291.31
2022-11-25T08:54:36.323Z,100297.59
2022-11-25T08:57:03.433Z,100298.50
2022-11-25T08:59:30.236Z,100298.63
2022-11-25T09:01:57.146Z,100304.75
2022-11-25T09:04:23.958Z,100303.66
2022-11-25T09:06:50.920Z,100307.81
2022-11-25T09:09:17.680Z,100319.50
2022-11-25T09:11:44.557Z,100316.66
2022-11-25T09:14:11.448Z,100314.56
2022-11-25T09:16:39.080Z,100321.69
2022-11-25T09:19:07.758Z,100327.38
2022-11-25T09:21:34.536Z,100320.97
2022-11-25T09:24:01.283Z,100317.91
2022-11-25T09:26:30.632Z,100317.50
2022-11-25T09:28:57.748Z,100307.91
2022-11-25T09:31:24.991Z,100304.66
2022-11-25T09:33:52.241Z,100304.19
2022-11-25T09:36:21.024Z,100305.50
2022-11-25T09:38:48.165Z,100307.44
2022-11-25T09:42:11.101Z,100306.06
2022-11-25T09:45:14.991Z,100305.84
2022-11-25T09:47:55.715Z,100307.78
2022-11-25T09:50:35.383Z,100309.06
2022-11-25T09:53:39.589Z,100311.28
2022-11-25T09:56:17.993Z,100307.22
2022-11-25T09:59:19.806Z,100312.63
2022-11-25T10:02:16.595Z,100313.84
2022-11-25T10:05:00.520Z,100326.31
2022-11-25T10:07:44.182Z,100319.78
2022-11-25T10:10:22.337Z,100316.06
2022-11-25T10:12:51.395Z,100314.91
2022-11-25T10:15:23.548Z,100322.75
2022-11-25T10:17:53.595Z,100323.00
2022-11-25T10:20:33.829Z,100319.94
2022-11-25T10:23:23.554Z,100325.75
2022-11-25T10:26:01.914Z,100322.66
2022-11-25T10:28:34.631Z,100310.22
2022-11-25T10:31:06.458Z,100329.03
2022-11-25T10:33:40.318Z,100318.03
2022-11-25T10:36:21.577Z,100317.41
2022-11-25T10:38:54.164Z,100312.63
2022-11-25T10:41:24.628Z,100316.59
2022-11-25T10:43:52.743Z,100317.84
2022-11-25T10:46:49.780Z,100320.63
2022-11-25T10:49:43.567Z,100311.84
2022-11-25T10:52:14.467Z,100313.22
2022-11-25T10:54:41.575Z,100316.59
2022-11-25T10:57:26.529Z,100309.38
2022-11-25T11:00:01.055Z,100305.34
2022-11-25T11:02:29.886Z,100306.16
2022-11-25T11:05:04.837Z,100295.72
2022-11-25T11:07:34.544Z,100292.53
2022-11-25T11:10:27.022Z,100297.09
2022-11-25T11:13:07.079Z,100290.47
2022-11-25T11:15:47.409Z,100288.63
2022-11-25T11:18:27.911Z,100285.84
2022-11-25T11:21:00.464Z,100292.69
2022-11-25T11:23:29.133Z,100287.88
2022-11-25T11:26:03.557Z,100287.28
2022-11-25T11:28:32.955Z,100283.31
2022-11-25T11:31:15.085Z,100279.72
2022-11-25T11:33:48.353Z,100279.13
2022-11-25T11:36:15.579Z,100275.75
2022-11-25T11:38:57.074Z,100270.34
2022-11-25T11:41:59.229Z,100276.88
2022-11-25T11:44:29.172Z,100268.13
2022-11-25T11:47:18.946Z,100266.66
2022-11-25T11:49:55.733Z,100271.22
2022-11-25T11:52:39.401Z,100267.06
2022-11-25T11:55:32.210Z,100272.44
2022-11-25T11:58:12.365Z,100268.69
2022-11-25T12:01:05.065Z,100269.72
2022-11-25T12:03:40.631Z,100260.16
2022-11-25T12:06:09.759Z,100251.78
2022-11-25T12:09:08.342Z,100262.94
2022-11-25T12:11:42.972Z,100265.75
2022-11-25T12:14:31.327Z,100258.59
2022-11-25T12:17:01.022Z,100253.00
2022-11-25T12:19:54.270Z,100271.13
2022-11-25T12:22:26.254Z,100268.34
2022-11-25T12:25:23.621Z,100263.53
2022-11-25T12:27:55.425Z,100262.78
2022-11-25T12:30:24.013Z,100261.78
2022-11-25T12:33:30.564Z,100268.91
2022-11-25T12:36:43.586Z,100269.25
2022-11-25T12:39:10.265Z,100270.94
2022-11-25T12:41:47.266Z,100266.31
2022-11-25T12:44:33.409Z,100260.09
2022-11-25T12:47:01.410Z,100266.91
2022-11-25T12:49:31.807Z,100267.75
2022-11-25T12:52:11.617Z,100278.91
2022-11-25T12:55:08.759Z,100262.09
2022-11-25T12:58:13.043Z,100272.63
2022-11-25T13:00:51.658Z,100268.50
2022-11-25T13:03:48.059Z,100264.44
2022-11-25T13:06:33.780Z,100263.63
2022-11-25T13:09:10.700Z,100263.31
2022-11-25T13:11:49.642Z,100263.91
2022-11-25T13:14:48.234Z,100268.91
2022-11-25T13:17:17.071Z,100262.97
2022-11-25T13:19:44.365Z,100268.97
2022-11-25T13:22:23.761Z,100269.28
2022-11-25T13:24:50.737Z,100276.50
2022-11-25T13:27:40.635Z,100273.19
2022-11-25T13:30:33.391Z,100271.19
2022-11-25T13:33:13.495Z,100273.94
2022-11-25T13:35:55.198Z,100279.09
2022-11-25T13:38:31.073Z,100267.13
2022-11-25T13:41:16.150Z,100275.47
2022-11-25T13:44:12.137Z,100268.47
2022-11-25T13:46:40.075Z,100271.88
2022-11-25T13:49:21.952Z,100276.03
2022-11-25T13:51:58.319Z,100274.63
2022-11-25T13:54:37.151Z,100286.53
2022-11-25T13:57:13.261Z,100279.72
2022-11-25T13:59:43.013Z,100278.56
2022-11-25T14:02:28.116Z,100284.84
2022-11-25T14:05:08.733Z,100282.09
2022-11-25T14:07:54.041Z,100276.91
2022-11-25T14:10:45.003Z,100285.63
2022-11-25T14:13:41.976Z,100284.75
2022-11-25T14:16:08.881Z,100293.75
2022-11-25T14:22:02.956Z,100274.63
2022-11-25T14:24:40.290Z,100289.06
2022-11-25T14:27:27.501Z,100291.03
2022-11-25T14:30:05.280Z,100297.78
2022-11-25T14:32:48.289Z,100300.88
2022-11-25T14:35:23.401Z,100302.47
2022-11-25T14:38:09.421Z,100295.69
2022-11-25T14:40:47.111Z,100293.25
2022-11-25T14:43:27.550Z,100293.53
2022-11-25T14:46:13.770Z,100295.41
2022-11-25T14:48:41.879Z,100296.84
2022-11-25T14:51:11.754Z,100302.72
2022-11-25T14:53:48.268Z,100297.28
2022-11-25T14:56:22.228Z,100303.66
2022-11-25T14:58:53.151Z,100309.53
2022-11-25T15:01:23.370Z,100308.66
2022-11-25T15:03:52.141Z,100316.97
2022-11-25T15:06:22.400Z,100319.72
2022-11-25T15:08:58.478Z,100319.44
2022-11-25T15:11:29.116Z,100322.59
2022-11-25T15:14:03.336Z,100329.41
2022-11-25T15:16:39.351Z,100331.75
2022-11-25T15:19:14.708Z,100338.69
2022-11-25T15:22:07.455Z,100341.19
2022-11-25T15:24:43.284Z,100350.00
2022-11-25T15:27:19.078Z,100351.44
2022-11-25T15:29:48.054Z,100358.16
2022-11-25T15:32:26.923Z,100363.38
2022-11-25T15:34:56.940Z,100359.00
2022-11-25T15:37:24.233Z,100355.16
2022-11-25T15:40:11.568Z,100360.72
2022-11-25T15:42:43.017Z,100356.19
2022-11-25T15:45:20.498Z,100353.66
2022-11-25T15:47:47.809Z,100357.56
2022-11-25T15:50:28.681Z,100354.22
2022-11-25T15:52:59.879Z,100358.13
2022-11-25T15:55:40.019Z,100352.97
2022-11-25T15:58:18.513Z,100355.78
2022-11-25T16:01:03.397Z,100360.94
2022-11-25T16:03:33.992Z,100360.13
2022-11-25T16:06:01.963Z,100355.34
2022-11-25T16:08:36.077Z,100362.75
2022-11-25T16:11:21.066Z,100350.53
2022-11-25T16:13:49.425Z,100355.03
2022-11-25T16:16:32.360Z,100352.00
2022-11-25T16:19:10.660Z,100355.09
2022-11-25T16:21:38.070Z,100355.41
2022-11-25T16:24:26.646Z,100353.78
2022-11-25T16:27:04.548Z,100352.22
2022-11-25T16:29:39.692Z,100353.34
2022-11-25T16:32:18.769Z,100360.00
2022-11-25T16:34:46.126Z,100363.53
2022-11-25T16:37:14.013Z,100364.38
2022-11-25T16:39:41.153Z,100373.72
2022-11-25T16:42:14.487Z,100368.69
2022-11-25T16:44:41.088Z,100370.06
2022-11-25T16:47:10.615Z,100379.53
2022-11-25T16:49:37.799Z,100373.25
2022-11-25T16:52:05.502Z,100378.44
2022-11-25T16:54:37.808Z,100374.53
2022-11-25T16:57:14.652Z,100376.66
2022-11-25T16:59:44.122Z,100381.31
2022-11-25T17:02:18.525Z,100383.25
2022-11-25T17:04:48.935Z,100388.41
2022-11-25T17:07:33.629Z,100385.53
2022-11-25T17:10:00.805Z,100393.44
2022-11-25T17:12:32.298Z,100389.38
2022-11-25T17:15:00.875Z,100394.56
2022-11-25T17:17:30.971Z,100390.53
2022-11-25T17:19:57.772Z,100399.88
2022-11-25T17:22:26.306Z,100395.56
2022-11-25T17:24:53.855Z,100392.28
2022-11-25T17:27:30.980Z,100395.19
2022-11-25T17:29:59.809Z,100390.69
2022-11-25T17:32:28.060Z,100394.88
2022-11-25T17:34:55.875Z,100397.16
2022-11-25T17:37:24.363Z,100403.94
2022-11-25T17:39:57.321Z,100396.81
2022-11-25T17:42:31.484Z,100405.88
2022-11-25T17:44:58.479Z,100409.72
2022-11-25T17:47:25.283Z,100415.72
2022-11-25T17:49:52.160Z,100420.69
2022-11-25T17:52:19.265Z,100425.84
2022-11-25T17:54:46.096Z,100420.34
2022-11-25T17:57:21.407Z,100430.34
2022-11-25T17:59:48.509Z,100428.56
2022-11-25T18:02:20.904Z,100433.56
2022-11-25T18:04:49.224Z,100439.06
2022-11-25T18:07:16.242Z,100440.50
2022-11-25T18:09:44.427Z,100440.03
2022-11-25T18:12:19.981Z,100447.16
2022-11-25T18:14:49.171Z,100445.53
2022-11-25T18:17:18.977Z,100446.78
2022-11-25T18:19:55.607Z,100455.88
2022-11-25T18:22:24.506Z,100464.41
2022-11-25T18:24:51.799Z,100465.22
2022-11-25T18:27:28.642Z,100468.41
2022-11-25T18:29:58.413Z,100468.75
2022-11-25T18:32:25.984Z,100461.47
2022-11-25T18:34:52.819Z,100466.47
2022-11-25T18:37:19.822Z,100466.19
2022-11-25T18:39:46.762Z,100468.41
2022-11-25T18:42:28.945Z,100471.34
2022-11-25T18:44:56.508Z,100465.84
2022-11-25T18:47:23.422Z,100472.97
2022-11-25T18:49:55.495Z,100473.25
2022-11-25T18:52:24.243Z,100471.63
2022-11-25T18:54:51.207Z,100472.97
2022-11-25T18:57:18.199Z,100473.94
2022-11-25T18:59:45.399Z,100482.97
2022-11-25T19:02:17.340Z,100483.41
2022-11-25T19:04:44.561Z,100485.84
2022-11-25T19:07:11.517Z,100486.16
2022-11-25T19:09:38.381Z,100486.16
2022-11-25T19:12:05.908Z,100488.13
2022-11-25T19:14:36.140Z,100485.72
2022-11-25T19:17:05.755Z,100489.25
2022-11-25T19:19:32.741Z,100493.91
2022-11-25T19:22:02.480Z,100496.97
2022-11-25T19:24:29.348Z,100502.28
2022-11-25T19:26:57.714Z,100494.88
2022-11-25T19:29:38.821Z,100500.84
2022-11-25T19:32:25.789Z,100498.91
2022-11-25T19:34:58.812Z,100507.28
2022-11-25T19:37:26.081Z,100515.72
2022-11-25T19:39:53.432Z,100510.69
2022-11-25T19:42:20.367Z,100508.94
2022-11-25T19:44:47.409Z,100510.84
2022-11-25T19:47:21.579Z,100511.66
2022-11-25T19:49:49.358Z,100511.66
2022-11-25T19:52:19.593Z,100513.59
2022-11-25T19:54:46.626Z,100515.19
2022-11-25T19:57:19.215Z,100515.72
2022-11-25T19:59:46.642Z,100522.00
2022-11-25T20:02:16.831Z,100524.59
2022-11-25T20:04:45.635Z,100521.34
2022-11-25T20:07:15.732Z,100522.50
2022-11-25T20:09:42.885Z,100527.13
2022-11-25T20:12:19.095Z,100536.66
2022-11-25T20:14:46.166Z,100532.97
2022-11-25T20:17:28.563Z,100539.09
2022-11-25T20:19:58.296Z,100536.22
2022-11-25T20:22:31.158Z,100536.22
2022-11-25T20:25:00.959Z,100535.72
2022-11-25T20:27:28.972Z,100541.53
2022-11-25T20:29:56.402Z,100545.06
2022-11-25T20:32:28.079Z,100546.97
2022-11-25T20:34:58.860Z,100549.13
2022-11-25T20:37:40.347Z,100552.97
2022-11-25T20:40:25.560Z,100550.38
2022-11-25T20:42:53.124Z,100550.06
2022-11-25T20:45:22.375Z,100552.31
2022-11-25T20:47:50.903Z,100559.44
2022-11-25T20:50:21.925Z,100567.81
2022-11-25T20:52:52.828Z,100577.97
2022-11-25T20:55:24.808Z,100579.94
2022-11-25T20:57:52.715Z,100581.03
2022-11-25T21:00:28.795Z,100578.94
2022-11-25T21:02:57.416Z,100577.66
2022-11-25T21:05:26.411Z,100579.78
2022-11-25T21:07:54.541Z,100580.75
2022-11-25T21:10:29.960Z,100582.00
2022-11-25T21:12:57.036Z,100582.16
2022-11-25T21:15:27.527Z,100585.41
2022-11-25T21:17:54.432Z,100585.56
2022-11-25T21:20:21.330Z,100592.97
2022-11-25T21:22:52.858Z,100585.84
2022-11-25T21:25:22.806Z,100589.09
2022-11-25T21:27:52.061Z,100582.94
2022-11-25T21:30:24.868Z,100587.94
2022-11-25T21:32:56.473Z,100574.66
2022-11-25T21:35:30.177Z,100582.25
2022-11-25T21:37:57.200Z,100588.38
2022-11-25T21:40:32.336Z,100587.69
2022-11-25T21:43:01.949Z,100586.88
2022-11-25T21:45:28.750Z,100587.03
2022-11-25T21:47:55.694Z,100588.97
2022-11-25T21:50:29.903Z,100593.81
2022-11-25T21:53:03.093Z,100600.88
2022-11-25T21:55:35.687Z,100595.72
2022-11-25T21:58:02.582Z,100601.03
2022-11-25T22:00:29.828Z,100598.16
2022-11-25T22:02:56.730Z,100600.06
2022-11-25T22:05:26.971Z,100607.94
2022-11-25T22:07:55.165Z,100599.41
2022-11-25T22:10:24.544Z,100599.88
2022-11-25T22:12:51.372Z,100599.69
2022-11-25T22:15:23.747Z,100603.34
2022-11-25T22:17:55.796Z,100607.69
2022-11-25T22:20:36.266Z,100617.69
2022-11-25T22:23:11.061Z,100606.25
2022-11-25T22:25:37.760Z,100609.78
2022-11-25T22:28:04.949Z,100614.16
2022-11-25T22:30:37.460Z,100615.59
2022-11-25T22:33:24.622Z,100622.34
2022-11-25T22:35:51.320Z,100613.28
2022-11-25T22:38:19.596Z,100615.38
2022-11-25T22:40:53.994Z,100611.03
2022-11-25T22:43:25.195Z,100615.38
2022-11-25T22:45:56.002Z,100616.19
2022-11-25T22:48:32.425Z,100621.34
2022-11-25T22:50:59.281Z,100623.72
2022-11-25T22:53:26.426Z,100624.69
2022-11-25T22:55:56.906Z,100630.19
2022-11-25T22:58:27.726Z,100634.69
2022-11-25T23:00:56.325Z,100634.03
2022-11-25T23:03:29.403Z,100633.22
2022-11-25T23:05:57.263Z,100640.00
2022-11-25T23:08:27.496Z,100642.59
2022-11-25T23:10:54.896Z,100647.63
2022-11-25T23:13:22.422Z,100644.22
2022-11-25T23:15:56.122Z,100634.38
2022-11-25T23:18:38.381Z,100643.88
2022-11-25T23:21:38.180Z,100639.69
2022-11-25T23:24:14.179Z,100637.69
2022-11-25T23:26:40.854Z,100638.06
2022-11-25T23:29:08.053Z,100641.31
2022-11-25T23:31:37.012Z,100645.50
2022-11-25T23:34:06.093Z,100641.31
2022-11-25T23:36:45.431Z,100645.28
2022-11-25T23:39:22.290Z,100639.59
2022-11-25T23:41:49.748Z,100648.00
2022-11-25T23:44:25.490Z,100653.16
2022-11-25T23:46:55.028Z,100654.44
2022-11-25T23:49:44.520Z,100654.66
2022-11-25T23:52:14.577Z,100656.28
2022-11-25T23:54:46.099Z,100657.41
2022-11-25T23:57:23.005Z,100641.53
2022-11-25T23:59:50.194Z,100650.25
